Z-five — WDE7721 — position and weather

sailwx.info

Track history (hours):
 
Tides and Currents Weather Stations Pressure Air Temp Water Temp Dewpoint Dewpoint Depression Visibility Wind Speed Wind Dir Waves Ship Positions

Z-five

Owner: Harley Marine Services, INC, SEATTLE, WA. More information available from US FCC via Universal Licensing System and Coast Guard Vessel Documentation Center.

Last reported at 2018-Feb-25 03:31 UTC. Time now 2018-Feb-25 03:49 UTC.
Position N 37°48' W 122°17'.

Length 29 m; draft 4 m.

Type: Tug. MMSI: 367396790.

Date/timePositionNaut miles runAvg speedWind from/ knotsBaromVisibWave heightAir tempDewpointWater temp
2018-Feb-25 03:31N 37°48' W 122°17'0 0.0
2018-Feb-25 03:00N 37°48' W 122°17'0 0.0
2018-Feb-25 02:31N 37°48' W 122°17'0 0.0
2018-Feb-25 02:01N 37°48' W 122°17'0 0.0
2018-Feb-25 01:31N 37°48' W 122°17'1 2.2
2018-Feb-25 01:00N 37°48' W 122°19'0 0.7
2018-Feb-25 00:31N 37°48' W 122°19'2 4.5
2018-Feb-25 00:00N 37°48' W 122°22'1 1.6
2018-Feb-24 23:30N 37°48' W 122°21'3 5.8
2018-Feb-24 23:00N 37°48' W 122°17'0 0.2
2018-Feb-24 22:30N 37°48' W 122°17'0 0.0
2018-Feb-24 22:01N 37°48' W 122°17'0 0.0
2018-Feb-24 21:30N 37°48' W 122°17'0 0.0
2018-Feb-24 21:00N 37°48' W 122°17'0 0.0
2018-Feb-24 20:30N 37°48' W 122°17'0 0.0
2018-Feb-24 20:00N 37°48' W 122°17'0 0.0
2018-Feb-24 19:30N 37°48' W 122°17'0 0.0
2018-Feb-24 19:00N 37°48' W 122°17'2 4.7
2018-Feb-24 18:30N 37°48' W 122°20'4 8.8
2018-Feb-24 18:00N 37°51' W 122°24'611.3
2018-Feb-24 17:30N 37°57' W 122°26'510.8
2018-Feb-24 17:00N 38°01' W 122°22'6 9.8
2018-Feb-24 16:26N 38°04' W 122°16'6 3.0
2018-Feb-24 14:16N 38°02' W 122°08'3 4.6
2018-Feb-24 13:43N 38°03' W 122°11'2 9.6
2018-Feb-24 13:28N 38°04' W 122°13'5 9.9
2018-Feb-24 13:00N 38°03' W 122°19'510.7
2018-Feb-24 12:31N 38°00' W 122°25'611.1
2018-Feb-24 12:00N 37°55' W 122°27'510.5
2018-Feb-24 11:30N 37°50' W 122°24'4 8.8
2018-Feb-24 11:00N 37°46' W 122°21'2 4.6
2018-Feb-24 10:31N 37°44' W 122°20'0 0.2
2018-Feb-24 10:00N 37°44' W 122°20'3 6.5
2018-Feb-24 09:31N 37°47' W 122°21'3 5.9
2018-Feb-24 09:00N 37°48' W 122°17'0 0.0
2018-Feb-24 08:30N 37°48' W 122°17'0 0.0
2018-Feb-24 08:00N 37°48' W 122°17'0 0.0
2018-Feb-24 07:30N 37°48' W 122°17'0 0.0
2018-Feb-24 07:00N 37°48' W 122°17'0 0.0
2018-Feb-24 06:31N 37°48' W 122°17'0 0.0
2018-Feb-24 06:00N 37°48' W 122°17'0 0.0
2018-Feb-24 05:30N 37°48' W 122°17'0 0.0
2018-Feb-24 05:00N 37°48' W 122°17'0 0.0
2018-Feb-24 04:30N 37°48' W 122°17'0 0.0
2018-Feb-24 04:00N 37°48' W 122°17'0 0.0
2018-Feb-24 03:31N 37°48' W 122°17'1 2.1
2018-Feb-24 03:00N 37°48' W 122°18'1 1.3
2018-Feb-24 02:31N 37°48' W 122°19'2 5.0
2018-Feb-24 02:00N 37°47' W 122°22'0 0.3
2018-Feb-24 01:30N 37°47' W 122°23'2 3.8
2018-Feb-24 01:00N 37°48' W 122°21'0 0.0
2018-Feb-24 00:30N 37°48' W 122°21'0 0.0
2018-Feb-24 00:00N 37°48' W 122°21'0 0.0
2018-Feb-23 23:30N 37°48' W 122°21'1 2.1
2018-Feb-23 23:00N 37°49' W 122°21'510.6
2018-Feb-23 22:30N 37°54' W 122°25'2 3.3
2018-Feb-23 22:00N 37°54' W 122°23'1 1.9
2018-Feb-23 21:30N 37°55' W 122°22'0 1.0
2018-Feb-23 21:00N 37°55' W 122°22'0 1.0
2018-Feb-23 20:30N 37°55' W 122°22'0 0.0
2018-Feb-23 20:00N 37°55' W 122°22'0 0.0
2018-Feb-23 19:30N 37°55' W 122°22'0 0.1
2018-Feb-23 19:00N 37°55' W 122°22'0 0.1
2018-Feb-23 18:30N 37°55' W 122°22'3 5.9
2018-Feb-23 18:00N 37°53' W 122°25'510.6
2018-Feb-23 17:30N 37°49' W 122°21'3 5.5
2018-Feb-23 17:00N 37°48' W 122°18'4 7.5
2018-Feb-23 16:30N 37°44' W 122°20'612.2
2018-Feb-23 16:00N 37°38' W 122°18'611.8
2018-Feb-23 15:29N 37°34' W 122°13'3 6.0
2018-Feb-23 14:58N 37°31' W 122°13'0 0.0
2018-Feb-23 14:30N 37°31' W 122°13'1 1.6
2018-Feb-23 14:00N 37°32' W 122°12'4 7.9
2018-Feb-23 13:29N 37°35' W 122°15'6 9.6
2018-Feb-23 12:54N 37°39' W 122°19'4 9.7
2018-Feb-23 12:30N 37°43' W 122°20'5 9.7
2018-Feb-23 12:01N 37°48' W 122°20'2 4.9
2018-Feb-23 11:30N 37°48' W 122°17'0 0.0
2018-Feb-23 11:00N 37°48' W 122°17'0 0.0
2018-Feb-23 10:30N 37°48' W 122°17'0 0.0
2018-Feb-23 10:00N 37°48' W 122°17'0 0.0
2018-Feb-23 09:30N 37°48' W 122°17'0 0.0
2018-Feb-23 09:00N 37°48' W 122°17'0 0.0
2018-Feb-23 08:30N 37°48' W 122°17'0 0.0
2018-Feb-23 08:00N 37°48' W 122°17'0 0.0
2018-Feb-23 07:30N 37°48' W 122°17'0 0.0
2018-Feb-23 07:00N 37°48' W 122°17'0 0.0
2018-Feb-23 06:30N 37°48' W 122°17'0 0.0
2018-Feb-23 06:01N 37°48' W 122°17'0 0.0
2018-Feb-23 05:30N 37°48' W 122°17'0 0.0
2018-Feb-23 05:00N 37°48' W 122°17'0 0.0
2018-Feb-23 04:30N 37°48' W 122°17'0 0.0
2018-Feb-23 04:00N 37°48' W 122°17'0 0.0
2018-Feb-23 03:30N 37°48' W 122°17'0 0.0
2018-Feb-23 03:00N 37°48' W 122°17'0 0.0
2018-Feb-23 02:30N 37°48' W 122°17'2 4.3
2018-Feb-23 02:01N 37°48' W 122°20'1 1.4
2018-Feb-23 01:30N 37°49' W 122°20'0 0.9
2018-Feb-23 01:00N 37°49' W 122°20'0 0.6
2018-Feb-23 00:30N 37°49' W 122°20'1 2.4
2018-Feb-23 00:00N 37°48' W 122°19'2 3.2
2018-Feb-22 23:30N 37°48' W 122°17'0 0.0
2018-Feb-22 23:00N 37°48' W 122°17'0 0.0
2018-Feb-22 22:30N 37°48' W 122°17'0 0.0
2018-Feb-22 22:00N 37°48' W 122°17'0 0.0
2018-Feb-22 21:30N 37°48' W 122°17'0 0.0
2018-Feb-22 21:01N 37°48' W 122°17'0 0.0
2018-Feb-22 20:30N 37°48' W 122°17'0 0.0
2018-Feb-22 20:00N 37°48' W 122°17'0 0.0
2018-Feb-22 19:30N 37°48' W 122°17'0 0.0
2018-Feb-22 19:00N 37°48' W 122°17'0 0.0
2018-Feb-22 18:30N 37°48' W 122°17'0 0.0
2018-Feb-22 18:01N 37°48' W 122°17'2 4.6
2018-Feb-22 17:30N 37°48' W 122°20'5 9.7
2018-Feb-22 17:00N 37°43' W 122°20'610.6
2018-Feb-22 16:28N 37°38' W 122°18'611.0
2018-Feb-22 15:57N 37°34' W 122°12'3 6.7
2018-Feb-22 15:30N 37°31' W 122°13'0 0.3
2018-Feb-22 15:00N 37°31' W 122°12'2 3.1
2018-Feb-22 14:29N 37°32' W 122°12'5 8.9
2018-Feb-22 13:59N 37°36' W 122°16'510.5
2018-Feb-22 13:29N 37°40' W 122°19'511.0
2018-Feb-22 13:00N 37°45' W 122°21'611.2
2018-Feb-22 12:30N 37°50' W 122°24'510.8
2018-Feb-22 12:00N 37°55' W 122°25'3 6.1
2018-Feb-22 11:30N 37°54' W 122°22'1 1.8
2018-Feb-22 11:00N 37°55' W 122°22'0 0.0
2018-Feb-22 10:30N 37°55' W 122°22'1 2.9
2018-Feb-22 10:00N 37°54' W 122°24'4 8.6
2018-Feb-22 09:30N 37°50' W 122°22'5 9.3
2018-Feb-22 09:00N 37°48' W 122°17'0 0.4
2018-Feb-22 08:30N 37°48' W 122°17'0 0.0
2018-Feb-22 08:00N 37°48' W 122°17'0 0.0
2018-Feb-22 07:31N 37°48' W 122°17'0 0.0
2018-Feb-22 07:01N 37°48' W 122°17'0 0.0
2018-Feb-22 06:30N 37°48' W 122°17'0 0.0
2018-Feb-22 06:00N 37°48' W 122°17'0 0.0
2018-Feb-22 05:31N 37°48' W 122°17'0 0.0
2018-Feb-22 05:01N 37°48' W 122°17'0 0.0
2018-Feb-22 04:30N 37°48' W 122°17'0 0.0
2018-Feb-22 04:00N 37°48' W 122°17'0 0.0
2018-Feb-22 03:30N 37°48' W 122°17'0 0.0
2018-Feb-22 03:00N 37°48' W 122°17'0 0.0
2018-Feb-22 02:30N 37°48' W 122°17'1 2.3
2018-Feb-22 02:01N 37°48' W 122°19'1 1.1
2018-Feb-22 01:30N 37°48' W 122°19'1 2.6
2018-Feb-22 01:01N 37°48' W 122°21'0 0.8
2018-Feb-22 00:30N 37°48' W 122°21'0 0.6
2018-Feb-22 00:00N 37°49' W 122°20'1 1.5
2018-Feb-21 23:30N 37°49' W 122°19'2 3.7
2018-Feb-21 23:00N 37°48' W 122°22'1 1.1
2018-Feb-21 22:31N 37°48' W 122°22'3 5.0
2018-Feb-21 22:00N 37°51' W 122°23'4 8.3
2018-Feb-21 21:30N 37°54' W 122°24'2 3.9
2018-Feb-21 21:00N 37°55' W 122°22'0 0.0
2018-Feb-21 20:30N 37°55' W 122°22'1 2.0
2018-Feb-21 20:00N 37°54' W 122°22'3 5.1
2018-Feb-21 19:30N 37°55' W 122°25'2 5.1
2018-Feb-21 19:00N 37°52' W 122°25'2 3.5
2018-Feb-21 18:30N 37°51' W 122°23'3 5.8
2018-Feb-21 18:00N 37°49' W 122°21'3 6.6
2018-Feb-21 17:30N 37°48' W 122°17'0 0.0
2018-Feb-21 17:01N 37°48' W 122°17'0 0.0
2018-Feb-21 16:30N 37°48' W 122°17'0 0.0
2018-Feb-21 16:00N 37°48' W 122°17'0 0.0
2018-Feb-21 15:30N 37°48' W 122°17'0 0.0
2018-Feb-21 15:00N 37°48' W 122°17'0 0.0
2018-Feb-21 14:30N 37°48' W 122°17'0 0.0
2018-Feb-21 14:01N 37°48' W 122°17'0 0.0
2018-Feb-21 13:30N 37°48' W 122°17'0 0.0
2018-Feb-21 13:00N 37°48' W 122°17'0 0.0
2018-Feb-21 12:30N 37°48' W 122°17'0 0.0
2018-Feb-21 12:00N 37°48' W 122°17'0 0.0
2018-Feb-21 11:30N 37°48' W 122°17'0 0.0
2018-Feb-21 11:00N 37°48' W 122°17'0 0.0
2018-Feb-21 10:30N 37°48' W 122°17'0 0.0
2018-Feb-21 10:00N 37°48' W 122°17'0 0.0
2018-Feb-21 09:30N 37°48' W 122°17'0 0.0
2018-Feb-21 09:00N 37°48' W 122°17'0 0.0
2018-Feb-21 08:30N 37°48' W 122°17'0 0.0
2018-Feb-21 08:00N 37°48' W 122°17'0 0.5
2018-Feb-21 07:30N 37°47' W 122°17'1 1.8
2018-Feb-21 07:00N 37°48' W 122°19'1 1.2
2018-Feb-21 06:31N 37°48' W 122°19'0 0.0
2018-Feb-21 06:00N 37°48' W 122°19'2 3.5
2018-Feb-21 05:30N 37°48' W 122°17'0 0.0
2018-Feb-21 05:00N 37°48' W 122°17'0 0.0
2018-Feb-21 04:30N 37°48' W 122°17'0 0.0
2018-Feb-21 04:00N 37°48' W 122°17'0 0.0
2018-Feb-21 03:30N 37°48' W 122°17'0 0.0
2018-Feb-21 03:00N 37°48' W 122°17'0 0.0
2018-Feb-21 02:30N 37°48' W 122°17'0 0.0
2018-Feb-21 02:00N 37°48' W 122°17'0 0.0
2018-Feb-21 01:30N 37°48' W 122°17'0 0.0
2018-Feb-21 01:00N 37°48' W 122°17'0 0.0
2018-Feb-21 00:30N 37°48' W 122°17'0 0.0
2018-Feb-21 00:00N 37°48' W 122°17'0 0.0
2018-Feb-20 23:31N 37°48' W 122°17'0 0.0
2018-Feb-20 23:00N 37°48' W 122°17'0 0.0
2018-Feb-20 22:30N 37°48' W 122°17'0 0.0
2018-Feb-20 22:00N 37°48' W 122°17'0 0.0
2018-Feb-20 21:30N 37°48' W 122°17'0 0.0
2018-Feb-20 21:00N 37°48' W 122°17'0 0.0
2018-Feb-20 20:30N 37°48' W 122°17'0 0.0
2018-Feb-20 20:00N 37°48' W 122°17'0 0.0
2018-Feb-20 19:30N 37°48' W 122°17'0 0.0
2018-Feb-20 19:00N 37°48' W 122°17'0 0.0
2018-Feb-20 18:30N 37°48' W 122°17'0 0.0
2018-Feb-20 18:00N 37°48' W 122°17'0 0.0
2018-Feb-20 17:30N 37°48' W 122°17'0 0.0
2018-Feb-20 17:00N 37°48' W 122°17'0 0.0
2018-Feb-20 16:30N 37°48' W 122°17'0 0.0
2018-Feb-20 16:00N 37°48' W 122°17'0 0.0
2018-Feb-20 15:31N 37°48' W 122°17'2 4.6
2018-Feb-20 15:00N 37°48' W 122°20'4 8.6
2018-Feb-20 14:30N 37°51' W 122°24'612.1
2018-Feb-20 14:00N 37°57' W 122°26'611.2
2018-Feb-20 13:30N 38°01' W 122°22'610.4
2018-Feb-20 12:59N 38°04' W 122°16'0 0.2
2018-Feb-20 12:27N 38°03' W 122°16'1 1.1
2018-Feb-20 11:59N 38°04' W 122°15'0 0.8
2018-Feb-20 11:25N 38°03' W 122°15'0 0.0
2018-Feb-20 10:57N 38°03' W 122°15'0 0.0
2018-Feb-20 10:30N 38°03' W 122°15'0 0.0
2018-Feb-20 07:23N 38°03' W 122°15'0 0.1
2018-Feb-20 06:41N 38°03' W 122°15'0 0.0
2018-Feb-20 06:18N 38°03' W 122°15'0 0.0
2018-Feb-20 05:59N 38°03' W 122°15'0 0.0
2018-Feb-20 04:23N 38°03' W 122°15'1 3.7
2018-Feb-20 03:59N 38°03' W 122°17'4 7.9
2018-Feb-20 03:30N 38°02' W 122°21'4 8.4
2018-Feb-20 03:00N 37°59' W 122°25'4 8.3
2018-Feb-20 02:30N 37°55' W 122°25'4 8.8
2018-Feb-20 02:00N 37°51' W 122°23'510.9
2018-Feb-20 01:30N 37°48' W 122°18'1 1.3
2018-Feb-20 01:00N 37°48' W 122°17'0 0.0
2018-Feb-20 00:30N 37°48' W 122°17'0 0.1
2018-Feb-20 00:00N 37°48' W 122°17'0 0.0
2018-Feb-19 23:30N 37°48' W 122°17'0 0.0
2018-Feb-19 23:00N 37°48' W 122°17'0 0.0
2018-Feb-19 22:30N 37°48' W 122°17'0 0.0
2018-Feb-19 22:00N 37°48' W 122°17'0 0.0
2018-Feb-19 21:31N 37°48' W 122°17'0 0.0
2018-Feb-19 21:00N 37°48' W 122°17'0 0.0
2018-Feb-19 20:30N 37°48' W 122°17'0 0.0
2018-Feb-19 20:00N 37°48' W 122°17'0 0.0
2018-Feb-19 19:30N 37°48' W 122°17'0 0.0
2018-Feb-19 19:01N 37°48' W 122°17'0 0.0
2018-Feb-19 18:30N 37°48' W 122°17'0 0.0
2018-Feb-19 18:00N 37°48' W 122°17'0 0.0
2018-Feb-19 17:31N 37°48' W 122°17'0 0.0
2018-Feb-19 17:01N 37°48' W 122°17'0 0.0
2018-Feb-19 16:30N 37°48' W 122°17'0 0.4
2018-Feb-19 16:00N 37°47' W 122°17'2 3.0
2018-Feb-19 15:30N 37°48' W 122°19'0 0.0
2018-Feb-19 15:01N 37°48' W 122°19'1 2.8
2018-Feb-19 14:30N 37°48' W 122°21'1 1.4
2018-Feb-19 14:00N 37°48' W 122°22'4 7.7
2018-Feb-19 13:30N 37°48' W 122°17'0 0.0
2018-Feb-19 13:00N 37°48' W 122°17'0 0.0
2018-Feb-19 12:30N 37°48' W 122°17'0 0.0
2018-Feb-19 12:00N 37°48' W 122°17'0 0.0
2018-Feb-19 11:30N 37°48' W 122°17'0 0.0
2018-Feb-19 11:00N 37°48' W 122°17'0 0.0
2018-Feb-19 10:30N 37°48' W 122°17'0 0.0
2018-Feb-19 10:00N 37°48' W 122°17'0 0.0
2018-Feb-19 09:30N 37°48' W 122°17'0 0.0
2018-Feb-19 09:00N 37°48' W 122°17'0 0.0
2018-Feb-19 08:30N 37°48' W 122°17'0 0.0
2018-Feb-19 08:00N 37°48' W 122°17'0 0.0
2018-Feb-19 07:30N 37°48' W 122°17'0 0.0
2018-Feb-19 07:00N 37°48' W 122°17'3 5.9
2018-Feb-19 06:30N 37°48' W 122°21'1 2.1
2018-Feb-19 06:01N 37°47' W 122°22'0 0.4
2018-Feb-19 05:31N 37°48' W 122°22'3 5.4
2018-Feb-19 05:01N 37°48' W 122°19'1 1.8
2018-Feb-19 04:30N 37°48' W 122°18'1 2.8
2018-Feb-19 04:00N 37°48' W 122°19'0 0.0
2018-Feb-19 03:30N 37°48' W 122°19'0 0.4
2018-Feb-19 03:00N 37°48' W 122°19'1 1.9
2018-Feb-19 02:30N 37°48' W 122°18'0 0.3
2018-Feb-19 02:00N 37°48' W 122°18'0 0.6
2018-Feb-19 01:31N 37°48' W 122°18'2 3.2
2018-Feb-19 01:00N 37°48' W 122°20'0 0.2
2018-Feb-19 00:30N 37°48' W 122°20'0 0.1
2018-Feb-19 00:00N 37°48' W 122°20'0 0.1
2018-Feb-18 23:31N 37°48' W 122°20'2 3.7
2018-Feb-18 23:00N 37°48' W 122°17'0 0.0
2018-Feb-18 22:30N 37°48' W 122°17'0 0.0
2018-Feb-18 22:00N 37°48' W 122°17'0 0.0
2018-Feb-18 21:29N 37°48' W 122°17'0 0.0
2018-Feb-18 21:00N 37°48' W 122°17'0 0.0
2018-Feb-18 20:31N 37°48' W 122°17'0 0.0
2018-Feb-18 20:01N 37°48' W 122°17'0 0.0
2018-Feb-18 19:30N 37°48' W 122°17'0 0.0
2018-Feb-18 19:00N 37°48' W 122°17'0 0.0
2018-Feb-18 18:30N 37°48' W 122°17'0 0.0
2018-Feb-18 18:01N 37°48' W 122°17'0 0.0
2018-Feb-18 17:30N 37°48' W 122°17'0 0.0
2018-Feb-18 17:00N 37°48' W 122°17'0 0.0
2018-Feb-18 16:30N 37°48' W 122°17'0 0.0
2018-Feb-18 16:00N 37°48' W 122°17'0 0.0
2018-Feb-18 15:31N 37°48' W 122°17'0 0.0
2018-Feb-18 15:01N 37°48' W 122°17'0 0.0
2018-Feb-18 14:31N 37°48' W 122°17'0 0.0
2018-Feb-18 14:01N 37°48' W 122°17'1 1.5
2018-Feb-18 13:30N 37°48' W 122°18'1 1.3
2018-Feb-18 13:01N 37°48' W 122°19'0 0.2
2018-Feb-18 12:31N 37°48' W 122°19'0 0.0
2018-Feb-18 12:00N 37°48' W 122°19'0 0.0
2018-Feb-18 11:31N 37°48' W 122°19'0 0.0
2018-Feb-18 11:00N 37°48' W 122°19'0 0.0
2018-Feb-18 10:31N 37°48' W 122°19'1 2.9
2018-Feb-18 10:01N 37°48' W 122°21'4 7.3
2018-Feb-18 09:30N 37°45' W 122°22'0 0.0
2018-Feb-18 09:00N 37°45' W 122°22'1 2.0
2018-Feb-18 08:31N 37°45' W 122°21'0 0.0
2018-Feb-18 08:00N 37°45' W 122°21'0 0.7
2018-Feb-18 07:30N 37°45' W 122°21'3 5.9
2018-Feb-18 07:00N 37°48' W 122°22'4 8.5
2018-Feb-18 06:31N 37°48' W 122°17'0 0.0
2018-Feb-18 06:00N 37°48' W 122°17'0 0.0
2018-Feb-18 05:31N 37°48' W 122°17'0 0.0
2018-Feb-18 05:00N 37°48' W 122°17'0 0.0
2018-Feb-18 04:30N 37°48' W 122°17'0 0.0
2018-Feb-18 04:00N 37°48' W 122°17'0 0.0
2018-Feb-18 03:30N 37°48' W 122°17'0 0.0
2018-Feb-18 03:00N 37°48' W 122°17'0 0.0
2018-Feb-18 02:30N 37°48' W 122°17'0 0.0
2018-Feb-18 02:00N 37°48' W 122°17'0 0.0
2018-Feb-18 01:30N 37°48' W 122°17'0 0.0
2018-Feb-18 01:00N 37°48' W 122°17'0 0.0
2018-Feb-18 00:30N 37°48' W 122°17'0 0.0
2018-Feb-18 00:00N 37°48' W 122°17'0 0.0
2018-Feb-17 23:30N 37°48' W 122°17'0 0.0
2018-Feb-17 23:00N 37°48' W 122°17'0 0.0
2018-Feb-17 22:30N 37°48' W 122°17'0 0.0
2018-Feb-17 22:00N 37°48' W 122°17'0 0.0
2018-Feb-17 21:30N 37°48' W 122°17'0 0.0
2018-Feb-17 21:00N 37°48' W 122°17'0 0.0
2018-Feb-17 20:30N 37°48' W 122°17'0 0.0
2018-Feb-17 20:00N 37°48' W 122°17'0 0.0
2018-Feb-17 19:30N 37°48' W 122°17'0 0.0
2018-Feb-17 19:00N 37°48' W 122°17'0 0.0
2018-Feb-17 18:30N 37°48' W 122°17'0 0.0
2018-Feb-17 18:00N 37°48' W 122°17'0 0.0
2018-Feb-17 17:30N 37°48' W 122°17'0 0.0
2018-Feb-17 17:00N 37°48' W 122°17'0 0.6
2018-Feb-17 16:30N 37°48' W 122°17'1 1.6
2018-Feb-17 16:00N 37°48' W 122°18'2 3.1
2018-Feb-17 15:31N 37°48' W 122°20'2 3.8
2018-Feb-17 15:00N 37°47' W 122°23'1 2.7
2018-Feb-17 14:30N 37°48' W 122°21'1 2.7
2018-Feb-17 14:00N 37°48' W 122°20'2 3.3
2018-Feb-17 13:30N 37°48' W 122°22'2 3.8
2018-Feb-17 13:00N 37°46' W 122°22'1 2.8
2018-Feb-17 12:30N 37°45' W 122°23'0 0.0
2018-Feb-17 12:00N 37°45' W 122°23'0 0.0
2018-Feb-17 11:30N 37°45' W 122°23'0 0.0
2018-Feb-17 11:00N 37°45' W 122°23'0 0.0
2018-Feb-17 10:30N 37°45' W 122°23'0 0.0
2018-Feb-17 10:00N 37°45' W 122°23'0 0.0
2018-Feb-17 09:30N 37°45' W 122°23'0 0.0
2018-Feb-17 09:00N 37°45' W 122°23'0 0.0
2018-Feb-17 08:30N 37°45' W 122°23'0 0.0
2018-Feb-17 08:00N 37°45' W 122°23'0 0.4
2018-Feb-17 07:30N 37°45' W 122°23'0 0.7
2018-Feb-17 07:01N 37°45' W 122°22'1 1.7
2018-Feb-17 06:29N 37°45' W 122°22'2 4.8
2018-Feb-17 06:00N 37°48' W 122°22'4 8.0
2018-Feb-17 05:30N 37°48' W 122°17'0 0.0
2018-Feb-17 05:01N 37°48' W 122°17'0 0.0
2018-Feb-17 04:30N 37°48' W 122°17'0 0.0
2018-Feb-17 04:00N 37°48' W 122°17'0 0.0
2018-Feb-17 03:30N 37°48' W 122°17'0 0.0
2018-Feb-17 03:00N 37°48' W 122°17'0 0.0
2018-Feb-17 02:30N 37°48' W 122°17'0 0.0
2018-Feb-17 02:00N 37°48' W 122°17'3 5.4
2018-Feb-17 01:30N 37°49' W 122°20'0 0.1
2018-Feb-17 01:00N 37°49' W 122°20'0 0.0
2018-Feb-17 00:30N 37°49' W 122°20'3 5.3
2018-Feb-17 00:01N 37°48' W 122°17'0 0.0
2018-Feb-16 23:30N 37°48' W 122°17'0 0.0
2018-Feb-16 23:00N 37°48' W 122°17'0 0.0
2018-Feb-16 22:30N 37°48' W 122°17'0 0.0
2018-Feb-16 22:01N 37°48' W 122°17'0 0.0
2018-Feb-16 21:31N 37°48' W 122°17'0 0.0
2018-Feb-16 21:00N 37°48' W 122°17'0 0.0
2018-Feb-16 20:30N 37°48' W 122°17'0 0.0
2018-Feb-16 20:00N 37°48' W 122°17'0 0.0
2018-Feb-16 19:30N 37°48' W 122°17'0 0.0
2018-Feb-16 19:00N 37°48' W 122°17'0 0.0
2018-Feb-16 18:30N 37°48' W 122°17'0 0.0
2018-Feb-16 18:00N 37°48' W 122°17'0 0.0
2018-Feb-16 17:31N 37°48' W 122°17'0 0.0
2018-Feb-16 17:01N 37°48' W 122°17'0 0.0
2018-Feb-16 16:31N 37°48' W 122°17'0 0.0
2018-Feb-16 16:01N 37°48' W 122°17'0 0.0
2018-Feb-16 15:31N 37°48' W 122°17'0 0.0
2018-Feb-16 15:00N 37°48' W 122°17'1 2.7
2018-Feb-16 14:31N 37°48' W 122°19'0 0.0
2018-Feb-16 14:00N 37°48' W 122°19'2 4.3
2018-Feb-16 13:31N 37°48' W 122°22'1 2.3
2018-Feb-16 13:00N 37°48' W 122°20'2 4.7
2018-Feb-16 12:31N 37°48' W 122°17'0 0.0
2018-Feb-16 12:00N 37°48' W 122°17'0 0.0
2018-Feb-16 11:31N 37°48' W 122°17'0 0.0
2018-Feb-16 11:01N 37°48' W 122°17'0 0.0
2018-Feb-16 10:30N 37°48' W 122°17'0 0.0
2018-Feb-16 10:00N 37°48' W 122°17'0 0.0
2018-Feb-16 09:30N 37°48' W 122°17'0 0.0
2018-Feb-16 09:00N 37°48' W 122°17'0 0.0
2018-Feb-16 08:30N 37°48' W 122°17'0 0.0
2018-Feb-16 08:00N 37°48' W 122°17'0 0.0
2018-Feb-16 07:30N 37°48' W 122°17'0 0.0
2018-Feb-16 07:00N 37°48' W 122°17'0 0.0
2018-Feb-16 06:30N 37°48' W 122°17'0 0.0
2018-Feb-16 06:00N 37°48' W 122°17'0 0.0
2018-Feb-16 05:31N 37°48' W 122°17'0 0.0
2018-Feb-16 05:00N 37°48' W 122°17'0 0.0
2018-Feb-16 04:30N 37°48' W 122°17'0 0.0
2018-Feb-16 04:00N 37°48' W 122°17'0 0.0
2018-Feb-16 03:30N 37°48' W 122°17'0 0.0
2018-Feb-16 03:01N 37°48' W 122°17'0 0.0
2018-Feb-16 02:30N 37°48' W 122°17'0 0.0
2018-Feb-16 02:01N 37°48' W 122°17'0 0.0
2018-Feb-16 01:30N 37°48' W 122°17'0 0.0
2018-Feb-16 01:00N 37°48' W 122°17'0 0.0
2018-Feb-16 00:31N 37°48' W 122°17'0 0.0
2018-Feb-16 00:00N 37°48' W 122°17'0 0.0
2018-Feb-15 23:30N 37°48' W 122°17'0 0.0
2018-Feb-15 23:00N 37°48' W 122°17'0 0.0
2018-Feb-15 22:30N 37°48' W 122°17'0 0.0
2018-Feb-15 22:00N 37°48' W 122°17'0 0.0
2018-Feb-15 21:30N 37°48' W 122°17'0 0.0
2018-Feb-15 21:01N 37°48' W 122°17'0 0.0
2018-Feb-15 20:30N 37°48' W 122°17'0 0.0
2018-Feb-15 20:00N 37°48' W 122°17'0 0.0
2018-Feb-15 19:30N 37°48' W 122°17'0 0.0
2018-Feb-15 19:00N 37°48' W 122°17'0 0.0
2018-Feb-15 18:30N 37°48' W 122°17'0 0.0
2018-Feb-15 18:01N 37°48' W 122°17'0 0.0
2018-Feb-15 17:31N 37°48' W 122°17'0 0.0
2018-Feb-15 17:00N 37°48' W 122°17'0 0.0
2018-Feb-15 16:30N 37°48' W 122°17'0 0.0
2018-Feb-15 16:00N 37°48' W 122°17'0 0.0
2018-Feb-15 15:30N 37°48' W 122°17'0 0.0
2018-Feb-15 15:00N 37°48' W 122°17'3 5.5
2018-Feb-15 14:30N 37°48' W 122°21'1 1.0
2018-Feb-15 14:00N 37°49' W 122°20'0 0.4
2018-Feb-15 13:31N 37°49' W 122°20'1 2.9
2018-Feb-15 13:00N 37°48' W 122°22'4 7.1
2018-Feb-15 12:30N 37°48' W 122°17'0 0.0
2018-Feb-15 12:00N 37°48' W 122°17'0 0.0
2018-Feb-15 11:30N 37°48' W 122°17'0 0.0
2018-Feb-15 11:00N 37°48' W 122°17'0 0.0
2018-Feb-15 10:31N 37°48' W 122°17'0 0.0
2018-Feb-15 10:01N 37°48' W 122°17'0 0.0
2018-Feb-15 09:30N 37°48' W 122°17'0 0.0
2018-Feb-15 09:01N 37°48' W 122°17'0 0.0
2018-Feb-15 08:30N 37°48' W 122°17'0 0.0
2018-Feb-15 08:00N 37°48' W 122°17'0 0.0
2018-Feb-15 07:31N 37°48' W 122°17'0 0.0
2018-Feb-15 07:00N 37°48' W 122°17'0 0.0
2018-Feb-15 06:30N 37°48' W 122°17'0 0.0
2018-Feb-15 06:00N 37°48' W 122°17'0 0.0
2018-Feb-15 05:30N 37°48' W 122°17'0 0.0
2018-Feb-15 05:00N 37°48' W 122°17'0 0.0
2018-Feb-15 04:31N 37°48' W 122°17'0 0.0
2018-Feb-15 04:00N 37°48' W 122°17'  
Track history (hours):
 
Tides and Currents Weather Stations Pressure Air Temp Water Temp Dewpoint Dewpoint Depression Visibility Wind Speed Wind Dir Waves Ship Positions

Z-five

Owner: Harley Marine Services, INC, SEATTLE, WA. More information available from US FCC via Universal Licensing System and Coast Guard Vessel Documentation Center.

Last reported at 2018-Feb-25 03:31 UTC. Time now 2018-Feb-25 03:49 UTC.
Position N 37°48' W 122°17'.

Length 29 m; draft 4 m.

Type: Tug. MMSI: 367396790.

Date/timePositionNaut miles runAvg speedWind from/ knotsBaromVisibWave heightAir tempDewpointWater temp
2018-Feb-25 03:31N 37°48' W 122°17'0 0.0
2018-Feb-25 03:00N 37°48' W 122°17'0 0.0
2018-Feb-25 02:31N 37°48' W 122°17'0 0.0
2018-Feb-25 02:01N 37°48' W 122°17'0 0.0
2018-Feb-25 01:31N 37°48' W 122°17'1 2.2
2018-Feb-25 01:00N 37°48' W 122°19'0 0.7
2018-Feb-25 00:31N 37°48' W 122°19'2 4.5
2018-Feb-25 00:00N 37°48' W 122°22'1 1.6
2018-Feb-24 23:30N 37°48' W 122°21'3 5.8
2018-Feb-24 23:00N 37°48' W 122°17'0 0.2
2018-Feb-24 22:30N 37°48' W 122°17'0 0.0
2018-Feb-24 22:01N 37°48' W 122°17'0 0.0
2018-Feb-24 21:30N 37°48' W 122°17'0 0.0
2018-Feb-24 21:00N 37°48' W 122°17'0 0.0
2018-Feb-24 20:30N 37°48' W 122°17'0 0.0
2018-Feb-24 20:00N 37°48' W 122°17'0 0.0
2018-Feb-24 19:30N 37°48' W 122°17'0 0.0
2018-Feb-24 19:00N 37°48' W 122°17'2 4.7
2018-Feb-24 18:30N 37°48' W 122°20'4 8.8
2018-Feb-24 18:00N 37°51' W 122°24'611.3
2018-Feb-24 17:30N 37°57' W 122°26'510.8
2018-Feb-24 17:00N 38°01' W 122°22'6 9.8
2018-Feb-24 16:26N 38°04' W 122°16'6 3.0
2018-Feb-24 14:16N 38°02' W 122°08'3 4.6
2018-Feb-24 13:43N 38°03' W 122°11'2 9.6
2018-Feb-24 13:28N 38°04' W 122°13'5 9.9
2018-Feb-24 13:00N 38°03' W 122°19'510.7
2018-Feb-24 12:31N 38°00' W 122°25'611.1
2018-Feb-24 12:00N 37°55' W 122°27'510.5
2018-Feb-24 11:30N 37°50' W 122°24'4 8.8
2018-Feb-24 11:00N 37°46' W 122°21'2 4.6
2018-Feb-24 10:31N 37°44' W 122°20'0 0.2
2018-Feb-24 10:00N 37°44' W 122°20'3 6.5
2018-Feb-24 09:31N 37°47' W 122°21'3 5.9
2018-Feb-24 09:00N 37°48' W 122°17'0 0.0
2018-Feb-24 08:30N 37°48' W 122°17'0 0.0
2018-Feb-24 08:00N 37°48' W 122°17'0 0.0
2018-Feb-24 07:30N 37°48' W 122°17'0 0.0
2018-Feb-24 07:00N 37°48' W 122°17'0 0.0
2018-Feb-24 06:31N 37°48' W 122°17'0 0.0
2018-Feb-24 06:00N 37°48' W 122°17'0 0.0
2018-Feb-24 05:30N 37°48' W 122°17'0 0.0
2018-Feb-24 05:00N 37°48' W 122°17'0 0.0
2018-Feb-24 04:30N 37°48' W 122°17'0 0.0
2018-Feb-24 04:00N 37°48' W 122°17'0 0.0
2018-Feb-24 03:31N 37°48' W 122°17'1 2.1
2018-Feb-24 03:00N 37°48' W 122°18'1 1.3
2018-Feb-24 02:31N 37°48' W 122°19'2 5.0
2018-Feb-24 02:00N 37°47' W 122°22'0 0.3
2018-Feb-24 01:30N 37°47' W 122°23'2 3.8
2018-Feb-24 01:00N 37°48' W 122°21'0 0.0
2018-Feb-24 00:30N 37°48' W 122°21'0 0.0
2018-Feb-24 00:00N 37°48' W 122°21'0 0.0
2018-Feb-23 23:30N 37°48' W 122°21'1 2.1
2018-Feb-23 23:00N 37°49' W 122°21'510.6
2018-Feb-23 22:30N 37°54' W 122°25'2 3.3
2018-Feb-23 22:00N 37°54' W 122°23'1 1.9
2018-Feb-23 21:30N 37°55' W 122°22'0 1.0
2018-Feb-23 21:00N 37°55' W 122°22'0 1.0
2018-Feb-23 20:30N 37°55' W 122°22'0 0.0
2018-Feb-23 20:00N 37°55' W 122°22'0 0.0
2018-Feb-23 19:30N 37°55' W 122°22'0 0.1
2018-Feb-23 19:00N 37°55' W 122°22'0 0.1
2018-Feb-23 18:30N 37°55' W 122°22'3 5.9
2018-Feb-23 18:00N 37°53' W 122°25'510.6
2018-Feb-23 17:30N 37°49' W 122°21'3 5.5
2018-Feb-23 17:00N 37°48' W 122°18'4 7.5
2018-Feb-23 16:30N 37°44' W 122°20'612.2
2018-Feb-23 16:00N 37°38' W 122°18'611.8
2018-Feb-23 15:29N 37°34' W 122°13'3 6.0
2018-Feb-23 14:58N 37°31' W 122°13'0 0.0
2018-Feb-23 14:30N 37°31' W 122°13'1 1.6
2018-Feb-23 14:00N 37°32' W 122°12'4 7.9
2018-Feb-23 13:29N 37°35' W 122°15'6 9.6
2018-Feb-23 12:54N 37°39' W 122°19'4 9.7
2018-Feb-23 12:30N 37°43' W 122°20'5 9.7
2018-Feb-23 12:01N 37°48' W 122°20'2 4.9
2018-Feb-23 11:30N 37°48' W 122°17'0 0.0
2018-Feb-23 11:00N 37°48' W 122°17'0 0.0
2018-Feb-23 10:30N 37°48' W 122°17'0 0.0
2018-Feb-23 10:00N 37°48' W 122°17'0 0.0
2018-Feb-23 09:30N 37°48' W 122°17'0 0.0
2018-Feb-23 09:00N 37°48' W 122°17'0 0.0
2018-Feb-23 08:30N 37°48' W 122°17'0 0.0
2018-Feb-23 08:00N 37°48' W 122°17'0 0.0
2018-Feb-23 07:30N 37°48' W 122°17'0 0.0
2018-Feb-23 07:00N 37°48' W 122°17'0 0.0
2018-Feb-23 06:30N 37°48' W 122°17'0 0.0
2018-Feb-23 06:01N 37°48' W 122°17'0 0.0
2018-Feb-23 05:30N 37°48' W 122°17'0 0.0
2018-Feb-23 05:00N 37°48' W 122°17'0 0.0
2018-Feb-23 04:30N 37°48' W 122°17'0 0.0
2018-Feb-23 04:00N 37°48' W 122°17'0 0.0
2018-Feb-23 03:30N 37°48' W 122°17'0 0.0
2018-Feb-23 03:00N 37°48' W 122°17'0 0.0
2018-Feb-23 02:30N 37°48' W 122°17'2 4.3
2018-Feb-23 02:01N 37°48' W 122°20'1 1.4
2018-Feb-23 01:30N 37°49' W 122°20'0 0.9
2018-Feb-23 01:00N 37°49' W 122°20'0 0.6
2018-Feb-23 00:30N 37°49' W 122°20'1 2.4
2018-Feb-23 00:00N 37°48' W 122°19'2 3.2
2018-Feb-22 23:30N 37°48' W 122°17'0 0.0
2018-Feb-22 23:00N 37°48' W 122°17'0 0.0
2018-Feb-22 22:30N 37°48' W 122°17'0 0.0
2018-Feb-22 22:00N 37°48' W 122°17'0 0.0
2018-Feb-22 21:30N 37°48' W 122°17'0 0.0
2018-Feb-22 21:01N 37°48' W 122°17'0 0.0
2018-Feb-22 20:30N 37°48' W 122°17'0 0.0
2018-Feb-22 20:00N 37°48' W 122°17'0 0.0
2018-Feb-22 19:30N 37°48' W 122°17'0 0.0
2018-Feb-22 19:00N 37°48' W 122°17'0 0.0
2018-Feb-22 18:30N 37°48' W 122°17'0 0.0
2018-Feb-22 18:01N 37°48' W 122°17'2 4.6
2018-Feb-22 17:30N 37°48' W 122°20'5 9.7
2018-Feb-22 17:00N 37°43' W 122°20'610.6
2018-Feb-22 16:28N 37°38' W 122°18'611.0
2018-Feb-22 15:57N 37°34' W 122°12'3 6.7
2018-Feb-22 15:30N 37°31' W 122°13'0 0.3
2018-Feb-22 15:00N 37°31' W 122°12'2 3.1
2018-Feb-22 14:29N 37°32' W 122°12'5 8.9
2018-Feb-22 13:59N 37°36' W 122°16'510.5
2018-Feb-22 13:29N 37°40' W 122°19'511.0
2018-Feb-22 13:00N 37°45' W 122°21'611.2
2018-Feb-22 12:30N 37°50' W 122°24'510.8
2018-Feb-22 12:00N 37°55' W 122°25'3 6.1
2018-Feb-22 11:30N 37°54' W 122°22'1 1.8
2018-Feb-22 11:00N 37°55' W 122°22'0 0.0
2018-Feb-22 10:30N 37°55' W 122°22'1 2.9
2018-Feb-22 10:00N 37°54' W 122°24'4 8.6
2018-Feb-22 09:30N 37°50' W 122°22'5 9.3
2018-Feb-22 09:00N 37°48' W 122°17'0 0.4
2018-Feb-22 08:30N 37°48' W 122°17'0 0.0
2018-Feb-22 08:00N 37°48' W 122°17'0 0.0
2018-Feb-22 07:31N 37°48' W 122°17'0 0.0
2018-Feb-22 07:01N 37°48' W 122°17'0 0.0
2018-Feb-22 06:30N 37°48' W 122°17'0 0.0
2018-Feb-22 06:00N 37°48' W 122°17'0 0.0
2018-Feb-22 05:31N 37°48' W 122°17'0 0.0
2018-Feb-22 05:01N 37°48' W 122°17'0 0.0
2018-Feb-22 04:30N 37°48' W 122°17'0 0.0
2018-Feb-22 04:00N 37°48' W 122°17'0 0.0
2018-Feb-22 03:30N 37°48' W 122°17'0 0.0
2018-Feb-22 03:00N 37°48' W 122°17'0 0.0
2018-Feb-22 02:30N 37°48' W 122°17'1 2.3
2018-Feb-22 02:01N 37°48' W 122°19'1 1.1
2018-Feb-22 01:30N 37°48' W 122°19'1 2.6
2018-Feb-22 01:01N 37°48' W 122°21'0 0.8
2018-Feb-22 00:30N 37°48' W 122°21'0 0.6
2018-Feb-22 00:00N 37°49' W 122°20'1 1.5
2018-Feb-21 23:30N 37°49' W 122°19'2 3.7
2018-Feb-21 23:00N 37°48' W 122°22'1 1.1
2018-Feb-21 22:31N 37°48' W 122°22'3 5.0
2018-Feb-21 22:00N 37°51' W 122°23'4 8.3
2018-Feb-21 21:30N 37°54' W 122°24'2 3.9
2018-Feb-21 21:00N 37°55' W 122°22'0 0.0
2018-Feb-21 20:30N 37°55' W 122°22'1 2.0
2018-Feb-21 20:00N 37°54' W 122°22'3 5.1
2018-Feb-21 19:30N 37°55' W 122°25'2 5.1
2018-Feb-21 19:00N 37°52' W 122°25'2 3.5
2018-Feb-21 18:30N 37°51' W 122°23'3 5.8
2018-Feb-21 18:00N 37°49' W 122°21'3 6.6
2018-Feb-21 17:30N 37°48' W 122°17'0 0.0
2018-Feb-21 17:01N 37°48' W 122°17'0 0.0
2018-Feb-21 16:30N 37°48' W 122°17'0 0.0
2018-Feb-21 16:00N 37°48' W 122°17'0 0.0
2018-Feb-21 15:30N 37°48' W 122°17'0 0.0
2018-Feb-21 15:00N 37°48' W 122°17'0 0.0
2018-Feb-21 14:30N 37°48' W 122°17'0 0.0
2018-Feb-21 14:01N 37°48' W 122°17'0 0.0
2018-Feb-21 13:30N 37°48' W 122°17'0 0.0
2018-Feb-21 13:00N 37°48' W 122°17'0 0.0
2018-Feb-21 12:30N 37°48' W 122°17'0 0.0
2018-Feb-21 12:00N 37°48' W 122°17'0 0.0
2018-Feb-21 11:30N 37°48' W 122°17'0 0.0
2018-Feb-21 11:00N 37°48' W 122°17'0 0.0
2018-Feb-21 10:30N 37°48' W 122°17'0 0.0
2018-Feb-21 10:00N 37°48' W 122°17'0 0.0
2018-Feb-21 09:30N 37°48' W 122°17'0 0.0
2018-Feb-21 09:00N 37°48' W 122°17'0 0.0
2018-Feb-21 08:30N 37°48' W 122°17'0 0.0
2018-Feb-21 08:00N 37°48' W 122°17'0 0.5
2018-Feb-21 07:30N 37°47' W 122°17'1 1.8
2018-Feb-21 07:00N 37°48' W 122°19'1 1.2
2018-Feb-21 06:31N 37°48' W 122°19'0 0.0
2018-Feb-21 06:00N 37°48' W 122°19'2 3.5
2018-Feb-21 05:30N 37°48' W 122°17'0 0.0
2018-Feb-21 05:00N 37°48' W 122°17'0 0.0
2018-Feb-21 04:30N 37°48' W 122°17'0 0.0
2018-Feb-21 04:00N 37°48' W 122°17'0 0.0
2018-Feb-21 03:30N 37°48' W 122°17'0 0.0
2018-Feb-21 03:00N 37°48' W 122°17'0 0.0
2018-Feb-21 02:30N 37°48' W 122°17'0 0.0
2018-Feb-21 02:00N 37°48' W 122°17'0 0.0
2018-Feb-21 01:30N 37°48' W 122°17'0 0.0
2018-Feb-21 01:00N 37°48' W 122°17'0 0.0
2018-Feb-21 00:30N 37°48' W 122°17'0 0.0
2018-Feb-21 00:00N 37°48' W 122°17'0 0.0
2018-Feb-20 23:31N 37°48' W 122°17'0 0.0
2018-Feb-20 23:00N 37°48' W 122°17'0 0.0
2018-Feb-20 22:30N 37°48' W 122°17'0 0.0
2018-Feb-20 22:00N 37°48' W 122°17'0 0.0
2018-Feb-20 21:30N 37°48' W 122°17'0 0.0
2018-Feb-20 21:00N 37°48' W 122°17'0 0.0
2018-Feb-20 20:30N 37°48' W 122°17'0 0.0
2018-Feb-20 20:00N 37°48' W 122°17'0 0.0
2018-Feb-20 19:30N 37°48' W 122°17'0 0.0
2018-Feb-20 19:00N 37°48' W 122°17'0 0.0
2018-Feb-20 18:30N 37°48' W 122°17'0 0.0
2018-Feb-20 18:00N 37°48' W 122°17'0 0.0
2018-Feb-20 17:30N 37°48' W 122°17'0 0.0
2018-Feb-20 17:00N 37°48' W 122°17'0 0.0
2018-Feb-20 16:30N 37°48' W 122°17'0 0.0
2018-Feb-20 16:00N 37°48' W 122°17'0 0.0
2018-Feb-20 15:31N 37°48' W 122°17'2 4.6
2018-Feb-20 15:00N 37°48' W 122°20'4 8.6
2018-Feb-20 14:30N 37°51' W 122°24'612.1
2018-Feb-20 14:00N 37°57' W 122°26'611.2
2018-Feb-20 13:30N 38°01' W 122°22'610.4
2018-Feb-20 12:59N 38°04' W 122°16'0 0.2
2018-Feb-20 12:27N 38°03' W 122°16'1 1.1
2018-Feb-20 11:59N 38°04' W 122°15'0 0.8
2018-Feb-20 11:25N 38°03' W 122°15'0 0.0
2018-Feb-20 10:57N 38°03' W 122°15'0 0.0
2018-Feb-20 10:30N 38°03' W 122°15'0 0.0
2018-Feb-20 07:23N 38°03' W 122°15'0 0.1
2018-Feb-20 06:41N 38°03' W 122°15'0 0.0
2018-Feb-20 06:18N 38°03' W 122°15'0 0.0
2018-Feb-20 05:59N 38°03' W 122°15'0 0.0
2018-Feb-20 04:23N 38°03' W 122°15'1 3.7
2018-Feb-20 03:59N 38°03' W 122°17'4 7.9
2018-Feb-20 03:30N 38°02' W 122°21'4 8.4
2018-Feb-20 03:00N 37°59' W 122°25'4 8.3
2018-Feb-20 02:30N 37°55' W 122°25'4 8.8
2018-Feb-20 02:00N 37°51' W 122°23'510.9
2018-Feb-20 01:30N 37°48' W 122°18'1 1.3
2018-Feb-20 01:00N 37°48' W 122°17'0 0.0
2018-Feb-20 00:30N 37°48' W 122°17'0 0.1
2018-Feb-20 00:00N 37°48' W 122°17'0 0.0
2018-Feb-19 23:30N 37°48' W 122°17'0 0.0
2018-Feb-19 23:00N 37°48' W 122°17'0 0.0
2018-Feb-19 22:30N 37°48' W 122°17'0 0.0
2018-Feb-19 22:00N 37°48' W 122°17'0 0.0
2018-Feb-19 21:31N 37°48' W 122°17'0 0.0
2018-Feb-19 21:00N 37°48' W 122°17'0 0.0
2018-Feb-19 20:30N 37°48' W 122°17'0 0.0
2018-Feb-19 20:00N 37°48' W 122°17'0 0.0
2018-Feb-19 19:30N 37°48' W 122°17'0 0.0
2018-Feb-19 19:01N 37°48' W 122°17'0 0.0
2018-Feb-19 18:30N 37°48' W 122°17'0 0.0
2018-Feb-19 18:00N 37°48' W 122°17'0 0.0
2018-Feb-19 17:31N 37°48' W 122°17'0 0.0
2018-Feb-19 17:01N 37°48' W 122°17'0 0.0
2018-Feb-19 16:30N 37°48' W 122°17'0 0.4
2018-Feb-19 16:00N 37°47' W 122°17'2 3.0
2018-Feb-19 15:30N 37°48' W 122°19'0 0.0
2018-Feb-19 15:01N 37°48' W 122°19'1 2.8
2018-Feb-19 14:30N 37°48' W 122°21'1 1.4
2018-Feb-19 14:00N 37°48' W 122°22'4 7.7
2018-Feb-19 13:30N 37°48' W 122°17'0 0.0
2018-Feb-19 13:00N 37°48' W 122°17'0 0.0
2018-Feb-19 12:30N 37°48' W 122°17'0 0.0
2018-Feb-19 12:00N 37°48' W 122°17'0 0.0
2018-Feb-19 11:30N 37°48' W 122°17'0 0.0
2018-Feb-19 11:00N 37°48' W 122°17'0 0.0
2018-Feb-19 10:30N 37°48' W 122°17'0 0.0
2018-Feb-19 10:00N 37°48' W 122°17'0 0.0
2018-Feb-19 09:30N 37°48' W 122°17'0 0.0
2018-Feb-19 09:00N 37°48' W 122°17'0 0.0
2018-Feb-19 08:30N 37°48' W 122°17'0 0.0
2018-Feb-19 08:00N 37°48' W 122°17'0 0.0
2018-Feb-19 07:30N 37°48' W 122°17'0 0.0
2018-Feb-19 07:00N 37°48' W 122°17'3 5.9
2018-Feb-19 06:30N 37°48' W 122°21'1 2.1
2018-Feb-19 06:01N 37°47' W 122°22'0 0.4
2018-Feb-19 05:31N 37°48' W 122°22'3 5.4
2018-Feb-19 05:01N 37°48' W 122°19'1 1.8
2018-Feb-19 04:30N 37°48' W 122°18'1 2.8
2018-Feb-19 04:00N 37°48' W 122°19'0 0.0
2018-Feb-19 03:30N 37°48' W 122°19'0 0.4
2018-Feb-19 03:00N 37°48' W 122°19'1 1.9
2018-Feb-19 02:30N 37°48' W 122°18'0 0.3
2018-Feb-19 02:00N 37°48' W 122°18'0 0.6
2018-Feb-19 01:31N 37°48' W 122°18'2 3.2
2018-Feb-19 01:00N 37°48' W 122°20'0 0.2
2018-Feb-19 00:30N 37°48' W 122°20'0 0.1
2018-Feb-19 00:00N 37°48' W 122°20'0 0.1
2018-Feb-18 23:31N 37°48' W 122°20'2 3.7
2018-Feb-18 23:00N 37°48' W 122°17'0 0.0
2018-Feb-18 22:30N 37°48' W 122°17'0 0.0
2018-Feb-18 22:00N 37°48' W 122°17'0 0.0
2018-Feb-18 21:29N 37°48' W 122°17'0 0.0
2018-Feb-18 21:00N 37°48' W 122°17'0 0.0
2018-Feb-18 20:31N 37°48' W 122°17'0 0.0
2018-Feb-18 20:01N 37°48' W 122°17'0 0.0
2018-Feb-18 19:30N 37°48' W 122°17'0 0.0
2018-Feb-18 19:00N 37°48' W 122°17'0 0.0
2018-Feb-18 18:30N 37°48' W 122°17'0 0.0
2018-Feb-18 18:01N 37°48' W 122°17'0 0.0
2018-Feb-18 17:30N 37°48' W 122°17'0 0.0
2018-Feb-18 17:00N 37°48' W 122°17'0 0.0
2018-Feb-18 16:30N 37°48' W 122°17'0 0.0
2018-Feb-18 16:00N 37°48' W 122°17'0 0.0
2018-Feb-18 15:31N 37°48' W 122°17'0 0.0
2018-Feb-18 15:01N 37°48' W 122°17'0 0.0
2018-Feb-18 14:31N 37°48' W 122°17'0 0.0
2018-Feb-18 14:01N 37°48' W 122°17'1 1.5
2018-Feb-18 13:30N 37°48' W 122°18'1 1.3
2018-Feb-18 13:01N 37°48' W 122°19'0 0.2
2018-Feb-18 12:31N 37°48' W 122°19'0 0.0
2018-Feb-18 12:00N 37°48' W 122°19'0 0.0
2018-Feb-18 11:31N 37°48' W 122°19'0 0.0
2018-Feb-18 11:00N 37°48' W 122°19'0 0.0
2018-Feb-18 10:31N 37°48' W 122°19'1 2.9
2018-Feb-18 10:01N 37°48' W 122°21'4 7.3
2018-Feb-18 09:30N 37°45' W 122°22'0 0.0
2018-Feb-18 09:00N 37°45' W 122°22'1 2.0
2018-Feb-18 08:31N 37°45' W 122°21'0 0.0
2018-Feb-18 08:00N 37°45' W 122°21'0 0.7
2018-Feb-18 07:30N 37°45' W 122°21'3 5.9
2018-Feb-18 07:00N 37°48' W 122°22'4 8.5
2018-Feb-18 06:31N 37°48' W 122°17'0 0.0
2018-Feb-18 06:00N 37°48' W 122°17'0 0.0
2018-Feb-18 05:31N 37°48' W 122°17'0 0.0
2018-Feb-18 05:00N 37°48' W 122°17'0 0.0
2018-Feb-18 04:30N 37°48' W 122°17'0 0.0
2018-Feb-18 04:00N 37°48' W 122°17'0 0.0
2018-Feb-18 03:30N 37°48' W 122°17'0 0.0
2018-Feb-18 03:00N 37°48' W 122°17'0 0.0
2018-Feb-18 02:30N 37°48' W 122°17'0 0.0
2018-Feb-18 02:00N 37°48' W 122°17'0 0.0
2018-Feb-18 01:30N 37°48' W 122°17'0 0.0
2018-Feb-18 01:00N 37°48' W 122°17'0 0.0
2018-Feb-18 00:30N 37°48' W 122°17'0 0.0
2018-Feb-18 00:00N 37°48' W 122°17'0 0.0
2018-Feb-17 23:30N 37°48' W 122°17'0 0.0
2018-Feb-17 23:00N 37°48' W 122°17'0 0.0
2018-Feb-17 22:30N 37°48' W 122°17'0 0.0
2018-Feb-17 22:00N 37°48' W 122°17'0 0.0
2018-Feb-17 21:30N 37°48' W 122°17'0 0.0
2018-Feb-17 21:00N 37°48' W 122°17'0 0.0
2018-Feb-17 20:30N 37°48' W 122°17'0 0.0
2018-Feb-17 20:00N 37°48' W 122°17'0 0.0
2018-Feb-17 19:30N 37°48' W 122°17'0 0.0
2018-Feb-17 19:00N 37°48' W 122°17'0 0.0
2018-Feb-17 18:30N 37°48' W 122°17'0 0.0
2018-Feb-17 18:00N 37°48' W 122°17'0 0.0
2018-Feb-17 17:30N 37°48' W 122°17'0 0.0
2018-Feb-17 17:00N 37°48' W 122°17'0 0.6
2018-Feb-17 16:30N 37°48' W 122°17'1 1.6
2018-Feb-17 16:00N 37°48' W 122°18'2 3.1
2018-Feb-17 15:31N 37°48' W 122°20'2 3.8
2018-Feb-17 15:00N 37°47' W 122°23'1 2.7
2018-Feb-17 14:30N 37°48' W 122°21'1 2.7
2018-Feb-17 14:00N 37°48' W 122°20'2 3.3
2018-Feb-17 13:30N 37°48' W 122°22'2 3.8
2018-Feb-17 13:00N 37°46' W 122°22'1 2.8
2018-Feb-17 12:30N 37°45' W 122°23'0 0.0
2018-Feb-17 12:00N 37°45' W 122°23'0 0.0
2018-Feb-17 11:30N 37°45' W 122°23'0 0.0
2018-Feb-17 11:00N 37°45' W 122°23'0 0.0
2018-Feb-17 10:30N 37°45' W 122°23'0 0.0
2018-Feb-17 10:00N 37°45' W 122°23'0 0.0
2018-Feb-17 09:30N 37°45' W 122°23'0 0.0
2018-Feb-17 09:00N 37°45' W 122°23'0 0.0
2018-Feb-17 08:30N 37°45' W 122°23'0 0.0
2018-Feb-17 08:00N 37°45' W 122°23'0 0.4
2018-Feb-17 07:30N 37°45' W 122°23'0 0.7
2018-Feb-17 07:01N 37°45' W 122°22'1 1.7
2018-Feb-17 06:29N 37°45' W 122°22'2 4.8
2018-Feb-17 06:00N 37°48' W 122°22'4 8.0
2018-Feb-17 05:30N 37°48' W 122°17'0 0.0
2018-Feb-17 05:01N 37°48' W 122°17'0 0.0
2018-Feb-17 04:30N 37°48' W 122°17'0 0.0
2018-Feb-17 04:00N 37°48' W 122°17'0 0.0
2018-Feb-17 03:30N 37°48' W 122°17'0 0.0
2018-Feb-17 03:00N 37°48' W 122°17'0 0.0
2018-Feb-17 02:30N 37°48' W 122°17'0 0.0
2018-Feb-17 02:00N 37°48' W 122°17'3 5.4
2018-Feb-17 01:30N 37°49' W 122°20'0 0.1
2018-Feb-17 01:00N 37°49' W 122°20'0 0.0
2018-Feb-17 00:30N 37°49' W 122°20'3 5.3
2018-Feb-17 00:01N 37°48' W 122°17'0 0.0
2018-Feb-16 23:30N 37°48' W 122°17'0 0.0
2018-Feb-16 23:00N 37°48' W 122°17'0 0.0
2018-Feb-16 22:30N 37°48' W 122°17'0 0.0
2018-Feb-16 22:01N 37°48' W 122°17'0 0.0
2018-Feb-16 21:31N 37°48' W 122°17'0 0.0
2018-Feb-16 21:00N 37°48' W 122°17'0 0.0
2018-Feb-16 20:30N 37°48' W 122°17'0 0.0
2018-Feb-16 20:00N 37°48' W 122°17'0 0.0
2018-Feb-16 19:30N 37°48' W 122°17'0 0.0
2018-Feb-16 19:00N 37°48' W 122°17'0 0.0
2018-Feb-16 18:30N 37°48' W 122°17'0 0.0
2018-Feb-16 18:00N 37°48' W 122°17'0 0.0
2018-Feb-16 17:31N 37°48' W 122°17'0 0.0
2018-Feb-16 17:01N 37°48' W 122°17'0 0.0
2018-Feb-16 16:31N 37°48' W 122°17'0 0.0
2018-Feb-16 16:01N 37°48' W 122°17'0 0.0
2018-Feb-16 15:31N 37°48' W 122°17'0 0.0
2018-Feb-16 15:00N 37°48' W 122°17'1 2.7
2018-Feb-16 14:31N 37°48' W 122°19'0 0.0
2018-Feb-16 14:00N 37°48' W 122°19'2 4.3
2018-Feb-16 13:31N 37°48' W 122°22'1 2.3
2018-Feb-16 13:00N 37°48' W 122°20'2 4.7
2018-Feb-16 12:31N 37°48' W 122°17'0 0.0
2018-Feb-16 12:00N 37°48' W 122°17'0 0.0
2018-Feb-16 11:31N 37°48' W 122°17'0 0.0
2018-Feb-16 11:01N 37°48' W 122°17'0 0.0
2018-Feb-16 10:30N 37°48' W 122°17'0 0.0
2018-Feb-16 10:00N 37°48' W 122°17'0 0.0
2018-Feb-16 09:30N 37°48' W 122°17'0 0.0
2018-Feb-16 09:00N 37°48' W 122°17'0 0.0
2018-Feb-16 08:30N 37°48' W 122°17'0 0.0
2018-Feb-16 08:00N 37°48' W 122°17'0 0.0
2018-Feb-16 07:30N 37°48' W 122°17'0 0.0
2018-Feb-16 07:00N 37°48' W 122°17'0 0.0
2018-Feb-16 06:30N 37°48' W 122°17'0 0.0
2018-Feb-16 06:00N 37°48' W 122°17'0 0.0
2018-Feb-16 05:31N 37°48' W 122°17'0 0.0
2018-Feb-16 05:00N 37°48' W 122°17'0 0.0
2018-Feb-16 04:30N 37°48' W 122°17'0 0.0
2018-Feb-16 04:00N 37°48' W 122°17'0 0.0
2018-Feb-16 03:30N 37°48' W 122°17'0 0.0
2018-Feb-16 03:01N 37°48' W 122°17'0 0.0
2018-Feb-16 02:30N 37°48' W 122°17'0 0.0
2018-Feb-16 02:01N 37°48' W 122°17'0 0.0
2018-Feb-16 01:30N 37°48' W 122°17'0 0.0
2018-Feb-16 01:00N 37°48' W 122°17'0 0.0
2018-Feb-16 00:31N 37°48' W 122°17'0 0.0
2018-Feb-16 00:00N 37°48' W 122°17'0 0.0
2018-Feb-15 23:30N 37°48' W 122°17'0 0.0
2018-Feb-15 23:00N 37°48' W 122°17'0 0.0
2018-Feb-15 22:30N 37°48' W 122°17'0 0.0
2018-Feb-15 22:00N 37°48' W 122°17'0 0.0
2018-Feb-15 21:30N 37°48' W 122°17'0 0.0
2018-Feb-15 21:01N 37°48' W 122°17'0 0.0
2018-Feb-15 20:30N 37°48' W 122°17'0 0.0
2018-Feb-15 20:00N 37°48' W 122°17'0 0.0
2018-Feb-15 19:30N 37°48' W 122°17'0 0.0
2018-Feb-15 19:00N 37°48' W 122°17'0 0.0
2018-Feb-15 18:30N 37°48' W 122°17'0 0.0
2018-Feb-15 18:01N 37°48' W 122°17'0 0.0
2018-Feb-15 17:31N 37°48' W 122°17'0 0.0
2018-Feb-15 17:00N 37°48' W 122°17'0 0.0
2018-Feb-15 16:30N 37°48' W 122°17'0 0.0
2018-Feb-15 16:00N 37°48' W 122°17'0 0.0
2018-Feb-15 15:30N 37°48' W 122°17'0 0.0
2018-Feb-15 15:00N 37°48' W 122°17'3 5.5
2018-Feb-15 14:30N 37°48' W 122°21'1 1.0
2018-Feb-15 14:00N 37°49' W 122°20'0 0.4
2018-Feb-15 13:31N 37°49' W 122°20'1 2.9
2018-Feb-15 13:00N 37°48' W 122°22'4 7.1
2018-Feb-15 12:30N 37°48' W 122°17'0 0.0
2018-Feb-15 12:00N 37°48' W 122°17'0 0.0
2018-Feb-15 11:30N 37°48' W 122°17'0 0.0
2018-Feb-15 11:00N 37°48' W 122°17'0 0.0
2018-Feb-15 10:31N 37°48' W 122°17'0 0.0
2018-Feb-15 10:01N 37°48' W 122°17'0 0.0
2018-Feb-15 09:30N 37°48' W 122°17'0 0.0
2018-Feb-15 09:01N 37°48' W 122°17'0 0.0
2018-Feb-15 08:30N 37°48' W 122°17'0 0.0
2018-Feb-15 08:00N 37°48' W 122°17'0 0.0
2018-Feb-15 07:31N 37°48' W 122°17'0 0.0
2018-Feb-15 07:00N 37°48' W 122°17'0 0.0
2018-Feb-15 06:30N 37°48' W 122°17'0 0.0
2018-Feb-15 06:00N 37°48' W 122°17'0 0.0
2018-Feb-15 05:30N 37°48' W 122°17'0 0.0
2018-Feb-15 05:00N 37°48' W 122°17'0 0.0
2018-Feb-15 04:31N 37°48' W 122°17'0 0.0
2018-Feb-15 04:00N 37°48' W 122°17'  

Dump ship's entire track history